createdAt,value
2018-08-28T00:02:14.201Z,10.00
2018-08-28T00:04:41.951Z,11.50
2018-08-28T00:07:09.733Z,7.63
2018-08-28T00:09:37.526Z,12.20
2018-08-28T00:12:05.251Z,10.70
2018-08-28T00:14:33.045Z,7.77
2018-08-28T00:17:00.859Z,9.17
2018-08-28T00:19:28.634Z,10.27
2018-08-28T00:22:09.866Z,9.50
2018-08-28T00:24:58.663Z,7.13
2018-08-28T00:27:26.753Z,10.63
2018-08-28T00:30:24.980Z,6.93
2018-08-28T00:32:52.777Z,7.97
2018-08-28T00:35:20.541Z,10.80
2018-08-28T00:37:48.349Z,6.63
2018-08-28T00:40:16.214Z,12.93
2018-08-28T00:42:44.991Z,7.20
2018-08-28T00:45:12.735Z,10.80
2018-08-28T00:47:41.565Z,10.73
2018-08-28T00:50:09.385Z,7.87
2018-08-28T00:52:37.146Z,11.20
2018-08-28T00:55:04.968Z,10.80
2018-08-28T00:57:32.702Z,10.63
2018-08-28T01:00:00.439Z,12.73
2018-08-28T01:02:28.204Z,8.77
2018-08-28T01:04:56.003Z,9.00
2018-08-28T01:07:24.796Z,10.10
2018-08-28T01:09:52.581Z,5.43
2018-08-28T01:12:20.399Z,11.53
2018-08-28T01:15:19.145Z,7.73
2018-08-28T01:18:11.088Z,9.07
2018-08-28T01:20:42.162Z,9.73
2018-08-28T01:29:11.443Z,11.17
2018-08-28T01:31:39.187Z,9.23
2018-08-28T01:34:06.968Z,8.37
2018-08-28T01:36:34.761Z,7.83
2018-08-28T01:39:02.667Z,9.63
2018-08-28T01:41:30.438Z,7.53
2018-08-28T01:43:58.216Z,9.10
2018-08-28T01:46:26.005Z,9.27
2018-08-28T01:48:53.777Z,9.10
2018-08-28T01:51:21.525Z,7.93
2018-08-28T01:53:49.368Z,12.47
2018-08-28T01:56:17.134Z,9.83
2018-08-28T01:58:44.905Z,10.13
2018-08-28T02:01:12.693Z,13.73
2018-08-28T02:03:40.462Z,12.13
2018-08-28T02:06:08.267Z,5.87
2018-08-28T02:08:36.028Z,9.40
2018-08-28T02:11:04.112Z,11.57
2018-08-28T02:13:45.255Z,13.17
2018-08-28T02:16:13.074Z,9.93
2018-08-28T02:18:40.872Z,8.80
2018-08-28T02:21:08.640Z,9.83
2018-08-28T02:23:36.404Z,11.90
2018-08-28T02:26:04.165Z,10.10
2018-08-28T02:28:31.948Z,11.13
2018-08-28T02:30:59.735Z,10.10
2018-08-28T02:33:27.520Z,12.93
2018-08-28T02:35:55.295Z,8.80
2018-08-28T02:38:23.099Z,14.57
2018-08-28T02:40:50.868Z,16.60
2018-08-28T02:43:18.664Z,12.80
2018-08-28T02:45:46.464Z,9.03
2018-08-28T02:48:14.210Z,11.03
2018-08-28T02:50:42.074Z,12.90
2018-08-28T02:53:09.834Z,15.43
2018-08-28T02:55:37.632Z,14.47
2018-08-28T02:58:05.416Z,15.17
2018-08-28T03:00:33.207Z,16.47
2018-08-28T03:03:00.975Z,13.10
2018-08-28T03:05:28.760Z,16.03
2018-08-28T03:07:56.526Z,18.30
2018-08-28T03:10:24.389Z,15.33
2018-08-28T03:12:52.181Z,14.03
2018-08-28T03:15:20.016Z,18.57
2018-08-28T03:18:22.180Z,14.63
2018-08-28T03:20:49.986Z,17.83
2018-08-28T03:23:17.769Z,12.17
2018-08-28T03:25:45.519Z,14.67
2018-08-28T03:28:14.278Z,9.97
2018-08-28T03:30:42.080Z,15.33
2018-08-28T03:33:10.880Z,18.80
2018-08-28T03:35:38.637Z,15.87
2018-08-28T03:38:06.435Z,11.67
2018-08-28T03:40:34.228Z,14.77
2018-08-28T03:43:02.020Z,18.23
2018-08-28T03:45:29.832Z,15.47
2018-08-28T03:47:58.620Z,10.87
2018-08-28T03:50:26.423Z,18.23
2018-08-28T03:52:54.213Z,20.83
2018-08-28T03:55:22.015Z,19.87
2018-08-28T03:57:49.795Z,19.20
2018-08-28T04:00:17.552Z,18.40
2018-08-28T04:02:45.305Z,17.90
2018-08-28T04:05:13.136Z,23.63
2018-08-28T04:07:40.886Z,23.50
2018-08-28T04:10:08.686Z,26.53
2018-08-28T04:12:36.524Z,32.17
2018-08-28T04:15:04.341Z,25.23
2018-08-28T04:17:36.928Z,31.23
2018-08-28T04:20:04.785Z,31.13
2018-08-28T04:22:32.565Z,28.93
2018-08-28T04:25:08.014Z,39.93
2018-08-28T04:30:45.812Z,37.63
2018-08-28T04:33:13.824Z,36.90
2018-08-28T04:35:41.767Z,31.70
2018-08-28T04:38:09.735Z,30.23
2018-08-28T04:40:37.622Z,33.10
2018-08-28T04:43:05.596Z,39.40
2018-08-28T04:45:33.480Z,32.20
2018-08-28T04:48:01.422Z,34.07
2018-08-28T04:50:29.277Z,38.67
2018-08-28T04:52:57.283Z,35.63
2018-08-28T04:55:25.179Z,34.87
2018-08-28T04:57:53.056Z,35.13
2018-08-28T05:00:20.966Z,30.67
2018-08-28T05:02:48.951Z,37.10
2018-08-28T05:05:16.833Z,33.30
2018-08-28T05:07:44.641Z,40.87
2018-08-28T05:10:12.557Z,34.13
2018-08-28T05:12:40.456Z,33.10
2018-08-28T05:15:08.319Z,50.43
2018-08-28T05:17:36.219Z,52.73
2018-08-28T05:20:04.295Z,37.47
2018-08-28T05:22:32.271Z,31.37
2018-08-28T05:25:00.160Z,36.47
2018-08-28T05:27:28.162Z,24.40
2018-08-28T05:29:56.000Z,23.70
2018-08-28T05:32:23.849Z,19.73
2018-08-28T05:34:51.729Z,14.93
2018-08-28T05:37:19.539Z,12.43
2018-08-28T05:39:47.339Z,13.03
2018-08-28T05:42:15.183Z,5.07
2018-08-28T05:44:43.047Z,9.77
2018-08-28T05:47:10.857Z,10.83
2018-08-28T05:49:38.733Z,11.63
2018-08-28T05:52:06.547Z,7.90
2018-08-28T05:54:34.367Z,10.63
2018-08-28T05:57:03.175Z,9.10
2018-08-28T05:59:31.007Z,9.23
2018-08-28T06:01:58.829Z,12.47
2018-08-28T06:04:27.624Z,12.17
2018-08-28T06:06:55.440Z,8.00
2018-08-28T06:09:23.236Z,8.73
2018-08-28T06:11:51.026Z,11.20
2018-08-28T06:14:18.822Z,6.73
2018-08-28T06:16:46.864Z,6.40
2018-08-28T06:19:14.675Z,9.87
2018-08-28T06:21:42.483Z,9.90
2018-08-28T06:27:37.196Z,5.33
2018-08-28T06:30:05.179Z,13.20
2018-08-28T06:32:33.144Z,6.80
2018-08-28T06:35:01.026Z,4.80
2018-08-28T06:37:29.015Z,9.35
2018-08-28T06:39:56.915Z,10.75
2018-08-28T06:42:24.893Z,6.20
2018-08-28T06:44:52.781Z,9.53
2018-08-28T06:47:20.799Z,7.43
2018-08-28T06:49:48.694Z,7.77
2018-08-28T06:52:16.720Z,7.15
2018-08-28T06:54:44.602Z,10.23
2018-08-28T06:57:12.600Z,6.05
2018-08-28T06:59:40.542Z,9.13
2018-08-28T07:02:08.525Z,6.47
2018-08-28T07:04:36.433Z,5.00
2018-08-28T07:07:04.634Z,9.47
2018-08-28T07:09:32.576Z,13.08
2018-08-28T07:12:00.570Z,8.47
2018-08-28T07:14:28.502Z,3.58
2018-08-28T07:16:56.547Z,9.47
2018-08-28T07:19:24.467Z,7.12
2018-08-28T07:21:52.490Z,6.53
2018-08-28T07:24:20.594Z,6.80
2018-08-28T07:26:48.554Z,7.22
2018-08-28T07:29:16.437Z,11.90
2018-08-28T07:31:45.445Z,7.45
2018-08-28T07:34:13.436Z,9.08
2018-08-28T07:36:43.986Z,13.48
2018-08-28T07:39:11.807Z,13.58
2018-08-28T07:41:39.624Z,7.72
2018-08-28T07:44:07.516Z,7.00
2018-08-28T07:46:35.349Z,11.45
2018-08-28T07:49:03.201Z,11.43
2018-08-28T07:51:31.113Z,10.13
2018-08-28T07:53:59.350Z,8.18
2018-08-28T07:56:28.184Z,7.60
2018-08-28T07:58:56.090Z,12.70
2018-08-28T08:01:25.844Z,10.13
2018-08-28T08:03:53.671Z,6.53
2018-08-28T08:06:22.651Z,8.18
2018-08-28T08:08:52.538Z,11.43
2018-08-28T08:11:20.603Z,7.90
2018-08-28T08:13:48.884Z,9.38
2018-08-28T08:16:18.140Z,9.08
2018-08-28T08:18:47.796Z,6.12
2018-08-28T08:21:16.714Z,9.28
2018-08-28T08:23:45.216Z,10.00
2018-08-28T08:26:13.061Z,4.67
2018-08-28T08:28:41.473Z,7.45
2018-08-28T08:31:09.305Z,8.45
2018-08-28T08:33:37.126Z,7.03
2018-08-28T08:36:05.783Z,9.83
2018-08-28T08:38:33.604Z,9.58
2018-08-28T08:41:01.485Z,5.03
2018-08-28T08:43:29.458Z,7.35
2018-08-28T08:45:57.845Z,9.30
2018-08-28T08:48:25.693Z,6.25
2018-08-28T08:50:53.730Z,5.47
2018-08-28T08:53:22.527Z,9.80
2018-08-28T08:55:50.341Z,7.90
2018-08-28T08:58:18.177Z,7.17
2018-08-28T09:00:46.048Z,7.08
2018-08-28T09:03:14.065Z,8.95
2018-08-28T09:05:41.955Z,4.58
2018-08-28T09:08:10.812Z,6.40
2018-08-28T09:10:39.680Z,7.75
2018-08-28T09:13:07.512Z,6.35
2018-08-28T09:15:36.012Z,8.08
2018-08-28T09:18:04.161Z,6.67
2018-08-28T09:20:32.049Z,5.08
2018-08-28T09:23:00.296Z,5.72
2018-08-28T09:25:28.367Z,6.25
2018-08-28T09:27:56.723Z,7.58
2018-08-28T09:30:24.552Z,5.35
2018-08-28T09:32:52.353Z,5.15
2018-08-28T09:35:20.472Z,5.10
2018-08-28T09:37:48.496Z,6.67
2018-08-28T09:40:17.341Z,4.35
2018-08-28T09:42:46.260Z,4.33
2018-08-28T09:45:14.495Z,2.52
2018-08-28T09:47:42.998Z,5.03
2018-08-28T09:50:10.829Z,4.17
2018-08-28T09:52:40.278Z,2.90
2018-08-28T09:55:08.297Z,2.45
2018-08-28T09:57:36.264Z,1.55
2018-08-28T10:00:04.260Z,4.97
2018-08-28T10:02:32.194Z,1.60
2018-08-28T10:05:01.591Z,3.00
2018-08-28T10:07:29.426Z,3.15
2018-08-28T10:09:58.887Z,3.33
2018-08-28T10:12:27.516Z,5.12
2018-08-28T10:14:56.187Z,2.17
2018-08-28T10:17:24.342Z,7.15
2018-08-28T10:19:52.689Z,3.87
2018-08-28T10:22:28.140Z,2.22
2018-08-28T10:24:56.375Z,2.33
2018-08-28T10:27:25.480Z,1.27
2018-08-28T10:29:55.556Z,2.67
2018-08-28T10:32:24.347Z,3.52
2018-08-28T10:34:52.140Z,2.67
2018-08-28T10:37:19.936Z,2.77
2018-08-28T10:39:48.771Z,1.45
2018-08-28T10:42:16.573Z,3.17
2018-08-28T10:44:45.322Z,3.25
2018-08-28T10:47:13.084Z,5.10
2018-08-28T10:49:41.163Z,5.97
2018-08-28T10:52:09.155Z,1.98
2018-08-28T10:54:37.089Z,3.77
2018-08-28T10:57:06.102Z,2.02
2018-08-28T10:59:33.924Z,1.45
2018-08-28T11:02:02.877Z,2.33
2018-08-28T11:04:30.737Z,4.08
2018-08-28T11:06:58.532Z,2.05
2018-08-28T11:09:26.373Z,1.95
2018-08-28T11:11:54.201Z,1.05
2018-08-28T11:14:21.963Z,1.62
2018-08-28T11:16:49.755Z,0.90
2018-08-28T11:19:17.595Z,5.65
2018-08-28T11:21:45.479Z,0.57
2018-08-28T11:24:13.280Z,2.92
2018-08-28T11:26:41.102Z,2.70
2018-08-28T11:29:08.939Z,3.83
2018-08-28T11:31:36.743Z,4.67
2018-08-28T11:34:04.660Z,1.95
2018-08-28T11:36:32.466Z,1.15
2018-08-28T11:39:00.267Z,1.15
2018-08-28T11:41:28.078Z,2.35
2018-08-28T11:43:55.925Z,2.72
2018-08-28T11:46:23.746Z,2.58
2018-08-28T11:48:51.594Z,2.60
2018-08-28T11:51:19.374Z,2.80
2018-08-28T11:53:47.251Z,2.22
2018-08-28T11:56:15.117Z,2.20
2018-08-28T11:58:42.938Z,1.87
2018-08-28T12:01:10.778Z,4.92
2018-08-28T12:03:38.623Z,3.95
2018-08-28T12:06:06.466Z,3.02
2018-08-28T12:08:34.262Z,2.90
2018-08-28T12:11:24.700Z,1.45
2018-08-28T12:13:52.722Z,0.70
2018-08-28T12:16:20.672Z,2.35
2018-08-28T12:18:48.579Z,1.22
2018-08-28T12:21:16.626Z,2.08
2018-08-28T12:23:44.569Z,3.92
2018-08-28T12:26:12.521Z,3.90
2018-08-28T12:28:40.456Z,6.42
2018-08-28T12:31:08.379Z,1.70
2018-08-28T12:33:36.296Z,2.72
2018-08-28T12:36:04.214Z,4.28
2018-08-28T12:38:32.154Z,1.45
2018-08-28T12:41:00.116Z,4.25
2018-08-28T12:43:28.018Z,2.20
2018-08-28T12:45:55.938Z,1.75
2018-08-28T12:48:23.858Z,4.22
2018-08-28T12:50:51.773Z,3.15
2018-08-28T12:53:19.749Z,3.58
2018-08-28T12:55:47.630Z,4.97
2018-08-28T12:58:15.552Z,3.20
2018-08-28T13:00:43.513Z,5.03
2018-08-28T13:03:11.489Z,1.80
2018-08-28T13:05:39.494Z,4.55
2018-08-28T13:08:07.398Z,2.90
2018-08-28T13:10:35.399Z,1.77
2018-08-28T13:15:50.497Z,2.33
2018-08-28T13:18:18.303Z,4.90
2018-08-28T13:20:47.132Z,2.50
2018-08-28T13:23:15.996Z,3.30
2018-08-28T13:25:43.830Z,3.47
2018-08-28T13:28:12.117Z,2.80
2018-08-28T13:33:40.644Z,7.70
2018-08-28T13:40:23.377Z,2.42
2018-08-28T13:42:51.137Z,7.05
2018-08-28T13:45:18.959Z,2.37
2018-08-28T13:47:46.738Z,4.28
2018-08-28T13:50:14.601Z,6.90
2018-08-28T13:52:42.365Z,2.20
2018-08-28T13:55:13.803Z,2.65
2018-08-28T13:57:41.711Z,1.72
2018-08-28T14:00:09.738Z,3.87
2018-08-28T14:02:37.516Z,2.80
2018-08-28T14:05:05.443Z,2.67
2018-08-28T14:07:33.265Z,4.70
2018-08-28T14:10:01.175Z,6.35
2018-08-28T14:12:29.145Z,3.52
2018-08-28T14:14:58.036Z,5.75
2018-08-28T14:17:25.939Z,3.55
2018-08-28T14:19:54.238Z,3.75
2018-08-28T14:22:22.261Z,3.52
2018-08-28T14:24:49.998Z,4.83
2018-08-28T14:27:17.896Z,4.97
2018-08-28T14:29:45.694Z,8.93
2018-08-28T14:32:14.939Z,3.37
2018-08-28T14:34:42.770Z,3.50
2018-08-28T14:37:10.721Z,3.60
2018-08-28T14:39:38.601Z,3.95
2018-08-28T14:42:06.404Z,4.03
2018-08-28T14:44:34.305Z,5.75
2018-08-28T14:47:02.153Z,8.63
2018-08-28T14:49:30.214Z,6.80
2018-08-28T14:51:58.051Z,1.50
2018-08-28T14:54:25.854Z,2.98
2018-08-28T14:56:53.631Z,7.75
2018-08-28T14:59:22.597Z,7.25
2018-08-28T15:01:50.439Z,4.67
2018-08-28T15:04:18.359Z,5.15
2018-08-28T15:06:46.239Z,2.22
2018-08-28T15:09:14.095Z,4.20
2018-08-28T15:11:41.960Z,4.10
2018-08-28T15:14:10.747Z,5.03
2018-08-28T15:16:38.884Z,1.65
2018-08-28T15:19:06.662Z,9.88
2018-08-28T15:21:35.673Z,5.03
2018-08-28T15:24:03.475Z,6.58
2018-08-28T15:26:31.302Z,4.83
2018-08-28T15:28:59.104Z,3.50
2018-08-28T15:31:26.942Z,2.45
2018-08-28T15:33:54.703Z,2.90
2018-08-28T15:36:22.746Z,5.15
2018-08-28T15:38:50.612Z,5.47
2018-08-28T15:41:18.371Z,4.92
2018-08-28T15:43:46.165Z,4.33
2018-08-28T15:46:14.153Z,4.08
2018-08-28T15:48:41.943Z,3.85
2018-08-28T15:51:09.891Z,5.30
2018-08-28T15:53:38.702Z,1.72
2018-08-28T15:56:06.669Z,3.83
2018-08-28T15:58:34.473Z,2.90
2018-08-28T16:01:02.344Z,5.37
2018-08-28T16:03:30.285Z,6.53
2018-08-28T16:05:58.271Z,6.08
2018-08-28T16:08:26.099Z,1.95
2018-08-28T16:10:55.614Z,3.70
2018-08-28T16:13:23.569Z,5.58
2018-08-28T16:15:51.414Z,3.20
2018-08-28T16:18:20.392Z,4.55
2018-08-28T16:20:48.235Z,2.62
2018-08-28T16:23:21.749Z,3.37
2018-08-28T16:25:49.619Z,3.50
2018-08-28T16:28:17.657Z,2.10
2018-08-28T16:30:45.464Z,1.42
2018-08-28T16:33:13.308Z,6.10
2018-08-28T16:35:41.122Z,2.25
2018-08-28T16:38:09.049Z,3.98
2018-08-28T16:40:36.896Z,2.42
2018-08-28T16:43:04.703Z,3.05
2018-08-28T16:45:33.680Z,1.32
2018-08-28T16:48:01.453Z,1.92
2018-08-28T16:50:29.349Z,3.12
2018-08-28T16:52:57.154Z,3.50
2018-08-28T16:55:24.941Z,5.58
2018-08-28T16:57:52.764Z,2.25
2018-08-28T17:00:20.748Z,2.52
2018-08-28T17:02:48.551Z,3.52
2018-08-28T17:05:17.553Z,2.98
2018-08-28T17:07:45.428Z,5.42
2018-08-28T17:10:13.249Z,4.97
2018-08-28T17:12:42.261Z,4.22
2018-08-28T17:15:10.263Z,5.37
2018-08-28T17:17:38.111Z,3.70
2018-08-28T17:20:05.983Z,6.58
2018-08-28T17:22:34.008Z,2.90
2018-08-28T17:25:01.802Z,4.60
2018-08-28T17:27:29.773Z,1.20
2018-08-28T17:29:57.595Z,11.57
2018-08-28T17:32:25.563Z,4.80
2018-08-28T17:34:53.448Z,1.92
2018-08-28T17:37:23.118Z,1.60
2018-08-28T17:39:50.875Z,8.98
2018-08-28T17:42:18.707Z,3.27
2018-08-28T17:44:46.728Z,4.35
2018-08-28T17:47:14.560Z,3.92
2018-08-28T17:49:44.339Z,5.92
2018-08-28T17:52:12.185Z,9.50
2018-08-28T17:54:40.226Z,5.58
2018-08-28T17:57:08.172Z,5.47
2018-08-28T17:59:36.931Z,5.92
2018-08-28T18:02:04.917Z,3.95
2018-08-28T18:04:32.815Z,7.17
2018-08-28T18:07:00.640Z,4.97
2018-08-28T18:09:29.557Z,6.25
2018-08-28T18:11:57.373Z,7.40
2018-08-28T18:14:33.476Z,4.28
2018-08-28T18:17:01.302Z,11.00
2018-08-28T18:19:29.313Z,20.80
2018-08-28T18:24:38.573Z,7.78
2018-08-28T18:27:36.516Z,7.58
2018-08-28T18:30:04.875Z,5.45
2018-08-28T18:32:32.701Z,6.80
2018-08-28T18:35:00.629Z,6.30
2018-08-28T18:37:28.451Z,7.55
2018-08-28T18:39:56.425Z,8.58
2018-08-28T18:42:24.225Z,10.45
2018-08-28T18:44:52.166Z,11.70
2018-08-28T18:47:19.986Z,7.47
2018-08-28T18:49:48.023Z,11.88
2018-08-28T18:52:16.161Z,12.58
2018-08-28T18:54:44.444Z,11.08
2018-08-28T18:57:12.384Z,9.33
2018-08-28T18:59:40.510Z,13.38
2018-08-28T19:02:08.574Z,8.20
2018-08-28T19:04:36.705Z,8.78
2018-08-28T19:07:04.610Z,11.77
2018-08-28T19:09:32.462Z,10.95
2018-08-28T19:12:00.526Z,10.77
2018-08-28T19:14:28.416Z,9.78
2018-08-28T19:16:56.449Z,10.97
2018-08-28T19:19:24.277Z,13.20
2018-08-28T19:21:52.104Z,14.65
2018-08-28T19:24:19.925Z,11.60
2018-08-28T19:26:47.927Z,13.70
2018-08-28T19:29:15.747Z,15.60
2018-08-28T19:31:43.592Z,14.90
2018-08-28T19:34:11.407Z,17.33
2018-08-28T19:36:39.303Z,16.03
2018-08-28T19:39:08.261Z,13.03
2018-08-28T19:42:10.201Z,15.32
2018-08-28T19:44:38.128Z,13.83
2018-08-28T19:49:41.663Z,14.47
2018-08-28T19:52:09.563Z,14.17
2018-08-28T19:54:37.515Z,13.87
2018-08-28T19:57:05.588Z,13.63
2018-08-28T19:59:33.316Z,16.13
2018-08-28T20:02:02.165Z,19.60
2018-08-28T20:04:29.976Z,16.00
2018-08-28T20:06:58.796Z,18.30
2018-08-28T20:09:26.564Z,22.10
2018-08-28T20:11:54.375Z,18.60
2018-08-28T20:14:22.203Z,20.03
2018-08-28T20:16:50.095Z,20.10
2018-08-28T20:19:17.927Z,21.07
2018-08-28T20:21:45.730Z,19.70
2018-08-28T20:24:13.541Z,20.73
2018-08-28T20:26:41.436Z,20.67
2018-08-28T20:29:10.287Z,22.23
2018-08-28T20:31:38.087Z,22.07
2018-08-28T20:34:06.265Z,20.97
2018-08-28T20:36:34.067Z,21.13
2018-08-28T20:39:01.905Z,21.30
2018-08-28T20:41:30.498Z,20.70
2018-08-28T20:43:58.349Z,22.47
2018-08-28T20:46:26.192Z,23.90
2018-08-28T20:48:54.044Z,22.30
2018-08-28T20:51:21.860Z,21.97
2018-08-28T20:53:49.702Z,23.80
2018-08-28T20:56:17.512Z,24.20
2018-08-28T20:58:45.337Z,29.70
2018-08-28T21:01:13.144Z,33.47
2018-08-28T21:03:42.991Z,46.87
2018-08-28T21:06:10.857Z,30.80
2018-08-28T21:08:38.680Z,25.33
2018-08-28T21:11:07.535Z,32.03
2018-08-28T21:13:35.364Z,29.27
2018-08-28T21:16:03.265Z,25.80
2018-08-28T21:18:31.055Z,26.20
2018-08-28T21:20:58.816Z,27.20
2018-08-28T21:23:26.699Z,26.53
2018-08-28T21:25:54.493Z,27.50
2018-08-28T21:28:22.315Z,26.83
2018-08-28T21:30:50.119Z,31.23
2018-08-28T21:33:18.121Z,25.63
2018-08-28T21:35:46.200Z,27.23
2018-08-28T21:38:14.061Z,25.60
2018-08-28T21:40:42.041Z,27.90
2018-08-28T21:43:09.951Z,27.43
2018-08-28T21:45:37.899Z,28.03
2018-08-28T21:48:05.864Z,32.30
2018-08-28T21:50:33.985Z,36.77
2018-08-28T21:53:01.853Z,32.70
2018-08-28T21:55:29.861Z,31.77
2018-08-28T21:57:57.781Z,33.37
2018-08-28T22:00:25.702Z,33.57
2018-08-28T22:02:53.664Z,32.77
2018-08-28T22:05:27.136Z,34.20
2018-08-28T22:08:00.914Z,35.80
2018-08-28T22:10:29.437Z,36.50
2018-08-28T22:12:58.460Z,35.83
2018-08-28T22:15:26.434Z,37.30
2018-08-28T22:17:54.756Z,31.93
2018-08-28T22:20:22.687Z,32.00
2018-08-28T22:22:52.437Z,34.33
2018-08-28T22:25:20.497Z,36.47
2018-08-28T22:27:48.535Z,36.40
2018-08-28T22:30:16.524Z,38.37
2018-08-28T22:32:44.507Z,40.80
2018-08-28T22:35:12.412Z,36.97
2018-08-28T22:37:40.428Z,36.80
2018-08-28T22:40:10.059Z,45.53
2018-08-28T22:42:38.046Z,39.67
2018-08-28T22:45:05.921Z,45.63
2018-08-28T22:47:33.810Z,43.10
2018-08-28T22:50:01.662Z,44.03
2018-08-28T22:52:29.776Z,45.20
2018-08-28T22:54:57.625Z,41.20
2018-08-28T22:57:25.556Z,52.70
2018-08-28T22:59:53.483Z,42.17
2018-08-28T23:02:42.832Z,45.87
2018-08-28T23:05:11.461Z,46.37
2018-08-28T23:07:40.255Z,52.70
2018-08-28T23:10:09.987Z,60.20
2018-08-28T23:12:38.570Z,62.00
2018-08-28T23:15:07.273Z,63.20
2018-08-28T23:17:35.980Z,69.73
2018-08-28T23:20:04.979Z,75.20
2018-08-28T23:22:33.586Z,80.50
2018-08-28T23:25:45.292Z,84.73
2018-08-28T23:28:45.264Z,86.13
2018-08-28T23:31:13.117Z,102.57
2018-08-28T23:33:48.651Z,115.73
2018-08-28T23:39:06.386Z,125.43
2018-08-28T23:41:34.222Z,135.07
2018-08-28T23:44:02.289Z,126.17
2018-08-28T23:46:31.094Z,125.60
2018-08-28T23:48:58.915Z,135.83
2018-08-28T23:51:26.773Z,144.00
2018-08-28T23:53:54.614Z,128.13
2018-08-28T23:56:22.451Z,140.97
2018-08-28T23:58:50.328Z,147.57
